Terminal Aerodrome Forecast
Issued by NWS La Crosse, WI

Home | Current Version | Previous Version | Text Only | Print | Product List | Glossary On
Versions: 1 2 3 4 5 6 7 8 9 10 11 12 13 14 15 16 17 18 19 20 21
000
FTUS43 KARX 212320
TAFRST
TAF
KRST 212320Z 2200/2224 22007KT 4SM -SHRA BR SCT035 OVC080
     FM220200 25007KT P6SM SCT035 BKN070
     FM220500 29005KT P6SM BKN025
     FM220900 32011KT P6SM SCT040=

USA.gov is the U.S. government's official web portal to all federal, state and local government web resources and services.